Airfield :
LOGIN :

Register | Disclaimer

   EN    FR    IT 

 










Legend :    VFR   Marginal VFR   IFR   Intensive IFR   Very Intensive IFR
Visi :
Ceiling :
>= 8 km
>= 3000ft
5 to 8 km
1000 to 3000 ft
1500m to 5 km
500 to 1000 ft
800 to 1500m
200 to 500 ft
< 800m
< 200 ft
Symbols :   Thunderstorms  Fog  Heavy snow  Heavy precipitations  Wind > 20 kt
SIGMETs :     Misc.  Thunderstorms  Icing  Turbulence  Mountain Waves  Volcanic Ashes






- Airport Elevation : 13 ft
- IATA code : GOA


LIMJ - Genoa Cristoforo Colombo

CURRENT METAR :
  • 011320Z 19010KT 9999 BKN028 25/19 Q1006

EXPIRED METARs :
  • 011250Z 19011KT 9999 FEW022 SCT030 25/20 Q1006
  • 011220Z 18012KT 9999 FEW022 SCT030 25/19 Q1006
  • 011150Z 18008KT 9999 SCT027 25/19 Q1006
  • 011120Z 18007KT 9999 SCT027 25/20 Q1006
  • 011050Z 20011KT 9999 FEW027 25/20 Q1005

TAF TAF LIMJ
Valid from the 01 at 12:00 until the 02 at 12:00 UTC


011100Z 0112/0212 19012KT 9999 SCT025
TEMPO 0112/0116 4000 SHRA
BECMG 0117/0119 VRB05KT



MET'MAP, your aeronautical weather chart ! - Copyright ORBIFLY December 2007 - Disclaimer

ORBIFLY MET'MAP TEAM :

Programming & Development : Alexandra Zaïnal
Concept & original design : Baudouin d'Aumeries
Assistance for programming : Marc-Olivier Méhu
Technical & hardware support : Manuel Goepfert

Contact : metmap@orbifly.com




SOURCES & CREDITS :

   NOAA